Time;durP1;ratioP1;P1;durP2;ratioP2;P2;SDS_P1;SDS_P2;PMS_P1;PMS_P2;Temp;Humidity;BMP_temperature;BMP_pressure;BME280_temperature;BME280_humidity;BME280_pressure;Samples;Min_cycle;Max_cycle;Signal;HPM_P1;HPM_P2
2021/09/16 00:00:08;;;;;;;4.22;0.70;;;14.10;99.90;;;;;;5034157;28;20030;-69
2021/09/16 00:02:34;;;;;;;7.90;2.17;;;14.10;99.90;;;;;;5034981;28;20424;-69
2021/09/16 00:04:59;;;;;;;3.50;0.85;;;14.00;99.90;;;;;;5034094;28;20120;-69
2021/09/16 00:07:25;;;;;;;4.20;0.55;;;14.00;99.90;;;;;;5034777;28;20022;-69
2021/09/16 00:09:51;;;;;;;4.75;1.00;;;14.00;99.90;;;;;;5035022;28;20108;-69
2021/09/16 00:12:16;;;;;;;2.22;0.73;;;14.00;99.90;;;;;;5034547;28;20036;-69
2021/09/16 00:14:42;;;;;;;3.90;0.73;;;13.90;99.90;;;;;;5034747;28;20081;-69
2021/09/16 00:17:07;;;;;;;5.20;0.75;;;13.90;99.90;;;;;;5035138;28;20029;-69
2021/09/16 00:19:33;;;;;;;5.47;1.10;;;13.80;99.90;;;;;;5034750;28;20640;-69
2021/09/16 00:21:59;;;;;;;4.88;0.80;;;13.80;99.90;;;;;;5035022;28;20104;-69
2021/09/16 00:24:24;;;;;;;3.50;0.80;;;13.80;99.90;;;;;;5034315;28;20044;-69
2021/09/16 00:26:50;;;;;;;4.60;1.42;;;13.70;99.90;;;;;;5034845;28;20040;-69
2021/09/16 00:29:16;;;;;;;3.72;0.80;;;13.70;99.90;;;;;;5034421;28;20109;-69
2021/09/16 00:31:41;;;;;;;2.53;0.80;;;13.70;99.90;;;;;;5034772;28;20028;-69
2021/09/16 00:34:07;;;;;;;6.45;1.00;;;13.60;99.90;;;;;;5034689;28;20155;-69
2021/09/16 00:36:32;;;;;;;1.77;0.70;;;13.60;99.90;;;;;;5034232;28;20021;-69
2021/09/16 00:38:58;;;;;;;4.95;1.45;;;13.60;99.90;;;;;;5034443;28;20055;-69
2021/09/16 00:41:28;;;;;;;4.00;1.30;;;13.50;99.90;;;;;;5034219;28;20535;-69
2021/09/16 00:43:54;;;;;;;6.10;1.10;;;13.50;99.90;;;;;;5033784;28;20051;-69
2021/09/16 00:46:19;;;;;;;12.30;1.45;;;13.50;99.90;;;;;;5034262;28;20029;-69
2021/09/16 00:48:45;;;;;;;5.85;1.08;;;13.50;99.90;;;;;;5034419;28;20021;-69
2021/09/16 00:51:10;;;;;;;6.57;1.10;;;13.40;99.90;;;;;;5034581;28;20033;-69
2021/09/16 00:53:39;;;;;;;6.53;1.20;;;13.50;99.90;;;;;;5034321;28;20356;-69
2021/09/16 00:56:07;;;;;;;3.97;1.30;;;13.50;99.90;;;;;;5034168;28;20021;-69
2021/09/16 00:58:37;;;;;;;4.25;1.05;;;13.50;99.90;;;;;;5033862;28;20080;-69
2021/09/16 01:01:03;;;;;;;9.75;1.50;;;13.50;99.90;;;;;;5034129;28;20468;-69
2021/09/16 01:03:29;;;;;;;3.42;1.30;;;13.60;99.90;;;;;;5033771;28;20025;-69
2021/09/16 01:05:55;;;;;;;6.22;1.85;;;13.60;99.90;;;;;;5034265;28;20534;-69
2021/09/16 01:08:21;;;;;;;7.32;1.20;;;13.60;99.90;;;;;;5033530;28;20083;-69
2021/09/16 01:10:47;;;;;;;5.90;1.10;;;13.70;99.90;;;;;;5034258;28;20041;-69
2021/09/16 01:13:14;;;;;;;5.10;1.38;;;13.70;99.90;;;;;;5034043;28;20056;-69
2021/09/16 01:15:39;;;;;;;6.45;1.80;;;13.80;99.90;;;;;;5033744;28;20092;-69
2021/09/16 01:18:05;;;;;;;4.35;1.20;;;13.80;99.90;;;;;;5033951;28;20029;-69
2021/09/16 01:20:30;;;;;;;5.38;1.25;;;13.90;99.90;;;;;;5033461;28;20036;-69
2021/09/16 01:22:56;;;;;;;8.45;1.70;;;13.90;99.90;;;;;;5033802;28;20036;-69
2021/09/16 01:25:29;;;;;;;6.05;1.15;;;13.90;99.90;;;;;;5033276;28;20033;-69
2021/09/16 01:27:56;;;;;;;7.53;1.45;;;14.00;99.90;;;;;;5033980;28;20120;-69
2021/09/16 01:30:22;;;;;;;4.20;1.10;;;14.00;99.90;;;;;;5033232;28;20041;-69
2021/09/16 01:32:49;;;;;;;6.53;1.33;;;14.00;99.90;;;;;;5032144;28;20391;-69
2021/09/16 01:35:15;;;;;;;4.18;0.90;;;14.10;99.90;;;;;;5033275;28;20117;-70
2021/09/16 01:37:41;;;;;;;5.50;1.00;;;14.10;99.90;;;;;;5033217;28;20025;-70
2021/09/16 01:40:07;;;;;;;5.72;1.10;;;14.10;99.90;;;;;;5033660;28;20025;-69
2021/09/16 01:42:33;;;;;;;5.85;1.38;;;14.00;99.90;;;;;;5032816;28;20116;-69
2021/09/16 01:44:58;;;;;;;6.13;1.15;;;14.00;99.90;;;;;;5033466;28;20057;-69
2021/09/16 01:47:24;;;;;;;5.68;1.65;;;14.00;99.90;;;;;;5031755;28;20630;-69
2021/09/16 01:49:49;;;;;;;11.00;1.38;;;13.90;99.90;;;;;;5033336;28;20025;-69
2021/09/16 01:52:16;;;;;;;8.18;1.33;;;13.90;99.90;;;;;;5032392;28;20112;-69
2021/09/16 01:54:42;;;;;;;9.10;1.58;;;13.80;99.90;;;;;;5031999;28;20164;-69
2021/09/16 01:57:08;;;;;;;5.90;1.63;;;13.80;99.90;;;;;;5033173;28;20026;-69
2021/09/16 01:59:34;;;;;;;4.13;1.35;;;13.70;99.90;;;;;;5032613;28;20036;-69
2021/09/16 02:01:59;;;;;;;7.72;1.50;;;13.70;99.90;;;;;;5033155;28;20032;-69
2021/09/16 02:04:25;;;;;;;2.90;1.25;;;13.60;99.90;;;;;;5032556;28;20021;-69
2021/09/16 02:06:50;;;;;;;6.22;1.88;;;13.60;99.90;;;;;;5032925;28;20030;-69
2021/09/16 02:09:16;;;;;;;11.80;2.17;;;13.50;99.90;;;;;;5032360;28;20519;-69
2021/09/16 02:11:41;;;;;;;6.03;2.00;;;13.50;99.90;;;;;;5033195;28;20037;-69
2021/09/16 02:14:07;;;;;;;5.63;1.90;;;13.50;99.90;;;;;;5032329;28;20032;-69
2021/09/16 02:16:32;;;;;;;5.03;2.22;;;13.50;99.90;;;;;;5032302;28;20136;-69
2021/09/16 02:18:58;;;;;;;6.88;1.98;;;13.40;99.90;;;;;;5032775;28;20032;-69
2021/09/16 02:21:23;;;;;;;8.40;2.28;;;13.40;99.90;;;;;;5032254;28;20036;-69
2021/09/16 02:23:49;;;;;;;10.60;2.50;;;13.30;99.90;;;;;;5020556;28;20080;-69
2021/09/16 02:26:14;;;;;;;17.15;4.18;;;13.30;99.90;;;;;;5012572;28;20396;-69
2021/09/16 02:28:40;;;;;;;5.70;2.58;;;13.30;99.90;;;;;;5016599;28;20030;-69
2021/09/16 02:31:05;;;;;;;6.97;2.33;;;13.20;99.90;;;;;;5032604;28;20036;-69
2021/09/16 02:33:32;;;;;;;6.88;3.20;;;13.20;99.90;;;;;;5032114;28;20033;-69
2021/09/16 02:35:59;;;;;;;3.47;2.55;;;13.10;99.90;;;;;;5032280;28;20383;-69
2021/09/16 02:38:24;;;;;;;9.43;3.33;;;13.10;99.90;;;;;;5031879;28;20032;-69
2021/09/16 02:40:50;;;;;;;6.13;3.55;;;13.10;99.90;;;;;;5032292;28;20029;-69
2021/09/16 02:43:15;;;;;;;9.98;3.83;;;13.10;99.90;;;;;;5031882;28;20021;-69
2021/09/16 02:45:41;;;;;;;8.30;3.13;;;13.10;99.90;;;;;;5032462;28;20402;-69
2021/09/16 02:48:07;;;;;;;7.32;4.00;;;13.10;99.90;;;;;;5032189;28;20483;-69
2021/09/16 02:50:32;;;;;;;8.25;3.90;;;13.20;99.90;;;;;;5031748;28;20033;-69
2021/09/16 02:52:58;;;;;;;12.40;4.30;;;13.20;99.90;;;;;;5030825;28;20462;-69
2021/09/16 02:55:23;;;;;;;8.93;3.47;;;13.30;99.90;;;;;;5031590;28;20033;-69
2021/09/16 02:57:49;;;;;;;7.18;3.60;;;13.30;99.90;;;;;;5030678;28;20020;-69
2021/09/16 03:00:15;;;;;;;11.05;3.67;;;13.40;99.90;;;;;;5031726;28;20079;-69
2021/09/16 03:02:41;;;;;;;9.65;4.85;;;13.40;99.90;;;;;;5032088;28;20025;-69
2021/09/16 03:05:07;;;;;;;9.63;4.50;;;13.50;99.90;;;;;;5031864;28;20029;-69
2021/09/16 03:07:32;;;;;;;9.20;4.38;;;13.50;99.90;;;;;;5031251;28;20117;-69
2021/09/16 03:09:58;;;;;;;10.27;5.32;;;13.50;99.90;;;;;;5032026;28;20068;-69
2021/09/16 03:12:23;;;;;;;8.63;4.30;;;13.60;99.90;;;;;;5031622;28;20033;-69
2021/09/16 03:14:49;;;;;;;8.18;4.50;;;13.60;99.90;;;;;;5031557;28;20037;-69
2021/09/16 03:17:15;;;;;;;10.27;4.78;;;13.60;99.90;;;;;;5031546;28;20042;-69
2021/09/16 03:19:41;;;;;;;6.68;4.13;;;13.60;99.90;;;;;;5031588;28;20031;-69
2021/09/16 03:22:06;;;;;;;7.35;3.88;;;13.70;99.90;;;;;;5031748;28;20080;-69
2021/09/16 03:24:32;;;;;;;8.60;4.07;;;13.70;99.90;;;;;;5031142;28;20026;-69
2021/09/16 03:26:57;;;;;;;9.10;3.85;;;13.80;99.90;;;;;;5031719;28;20072;-69
2021/09/16 03:29:23;;;;;;;6.43;4.03;;;13.80;99.90;;;;;;5031599;28;20029;-69
2021/09/16 03:31:50;;;;;;;8.15;3.75;;;13.80;99.90;;;;;;5031683;28;20037;-69
2021/09/16 03:34:16;;;;;;;4.35;3.45;;;13.90;99.90;;;;;;5031698;28;20032;-69
2021/09/16 03:36:42;;;;;;;9.65;4.03;;;13.90;99.90;;;;;;5031376;28;20021;-69
2021/09/16 03:39:07;;;;;;;7.03;3.53;;;13.90;99.90;;;;;;5031505;28;20151;-69
2021/09/16 03:41:33;;;;;;;8.48;2.83;;;14.00;99.90;;;;;;5031094;28;20127;-69
2021/09/16 03:43:59;;;;;;;7.72;3.75;;;14.00;99.90;;;;;;5031652;28;20499;-69
2021/09/16 03:46:24;;;;;;;8.02;3.25;;;14.00;99.90;;;;;;5031586;28;20025;-69
2021/09/16 03:48:50;;;;;;;6.05;3.10;;;14.00;99.90;;;;;;5031298;28;20021;-69
2021/09/16 03:51:15;;;;;;;9.00;3.50;;;14.10;99.90;;;;;;5031316;28;20057;-69
2021/09/16 03:53:41;;;;;;;7.20;3.78;;;14.10;99.90;;;;;;5031213;28;20108;-69
2021/09/16 03:56:06;;;;;;;9.27;4.53;;;14.10;99.90;;;;;;5031533;28;20041;-69
2021/09/16 03:58:32;;;;;;;7.25;4.55;;;14.10;99.90;;;;;;5029753;28;20025;-69
2021/09/16 04:00:57;;;;;;;10.07;4.72;;;14.10;99.90;;;;;;5031724;28;20013;-69
2021/09/16 04:03:23;;;;;;;7.53;4.30;;;14.10;99.90;;;;;;5031055;28;20029;-69
2021/09/16 04:05:48;;;;;;;8.80;5.05;;;14.00;99.90;;;;;;5031490;28;20042;-69
2021/09/16 04:08:14;;;;;;;9.27;4.40;;;14.00;99.90;;;;;;5030796;28;20065;-69
2021/09/16 04:10:39;;;;;;;8.00;4.40;;;14.00;99.90;;;;;;5031743;28;20379;-69
2021/09/16 04:13:06;;;;;;;8.05;4.32;;;14.00;99.90;;;;;;5030246;28;20029;-70
2021/09/16 04:15:32;;;;;;;9.52;4.53;;;13.90;99.90;;;;;;5030680;28;20124;-69
2021/09/16 04:17:58;;;;;;;7.15;3.65;;;13.90;99.90;;;;;;5032126;28;20072;-69
2021/09/16 04:20:23;;;;;;;10.60;4.35;;;13.90;99.90;;;;;;5034363;28;20018;-69
2021/09/16 04:22:49;;;;;;;10.02;4.53;;;13.90;99.90;;;;;;5034879;28;20026;-69
2021/09/16 04:25:14;;;;;;;8.30;3.75;;;13.80;99.90;;;;;;5034531;28;20037;-69
2021/09/16 04:27:40;;;;;;;12.45;5.32;;;13.90;99.90;;;;;;5033753;28;20040;-69
2021/09/16 04:30:06;;;;;;;9.60;4.05;;;13.80;99.90;;;;;;5034723;28;20104;-69
2021/09/16 04:32:32;;;;;;;8.93;3.85;;;13.80;99.90;;;;;;5034384;28;20079;-69
2021/09/16 04:34:57;;;;;;;7.85;3.78;;;13.80;99.90;;;;;;5034863;28;20487;-69
2021/09/16 04:37:23;;;;;;;5.85;3.28;;;13.80;99.90;;;;;;5034080;28;20018;-69
2021/09/16 04:39:48;;;;;;;7.50;3.70;;;13.80;99.90;;;;;;5033369;28;20083;-69
2021/09/16 04:42:14;;;;;;;9.40;3.63;;;13.80;99.90;;;;;;5034183;28;20353;-69
2021/09/16 04:44:42;;;;;;;7.57;4.32;;;13.80;99.90;;;;;;5034688;28;20029;-69
2021/09/16 04:47:07;;;;;;;12.07;4.10;;;13.80;99.90;;;;;;5034162;28;20502;-69
2021/09/16 04:49:33;;;;;;;6.85;3.55;;;13.70;99.90;;;;;;5034243;28;20034;-69
2021/09/16 04:51:58;;;;;;;5.15;3.85;;;13.80;99.90;;;;;;5034207;28;20032;-69
2021/09/16 04:54:24;;;;;;;9.73;4.47;;;13.70;99.90;;;;;;5032612;28;20025;-69
2021/09/16 04:56:49;;;;;;;9.55;4.35;;;13.70;99.90;;;;;;5034403;28;20550;-69
2021/09/16 04:59:15;;;;;;;7.18;3.58;;;13.70;99.90;;;;;;5033817;28;20026;-69
2021/09/16 05:01:41;;;;;;;7.15;4.50;;;13.60;99.90;;;;;;5034200;28;20468;-69
2021/09/16 05:04:06;;;;;;;9.23;3.92;;;13.60;99.90;;;;;;5033013;28;20032;-69
2021/09/16 05:06:32;;;;;;;5.65;4.07;;;13.60;99.90;;;;;;5033840;28;20037;-69
2021/09/16 05:08:57;;;;;;;4.65;3.53;;;13.60;99.90;;;;;;5033937;28;20044;-69
2021/09/16 05:11:23;;;;;;;8.68;3.83;;;13.60;99.90;;;;;;5033487;28;20491;-69
2021/09/16 05:13:49;;;;;;;13.77;3.97;;;13.60;99.90;;;;;;5033871;28;20052;-69
2021/09/16 05:16:14;;;;;;;7.20;4.25;;;13.60;99.90;;;;;;5033485;28;20088;-69
2021/09/16 05:18:40;;;;;;;9.40;4.32;;;13.50;99.90;;;;;;5033869;28;20029;-69
2021/09/16 05:21:05;;;;;;;7.78;4.13;;;13.60;99.90;;;;;;5033764;28;20036;-69
2021/09/16 05:23:31;;;;;;;8.50;4.38;;;13.50;99.90;;;;;;5033319;28;20025;-69
2021/09/16 05:25:56;;;;;;;8.95;4.80;;;13.50;99.90;;;;;;5033726;28;20437;-69
2021/09/16 05:28:22;;;;;;;11.15;4.18;;;13.50;99.90;;;;;;5033408;28;20057;-69
2021/09/16 05:30:47;;;;;;;8.77;4.15;;;13.50;99.90;;;;;;5033513;28;20462;-69
2021/09/16 05:33:13;;;;;;;8.43;4.90;;;13.50;99.90;;;;;;5033789;28;20117;-69
2021/09/16 05:35:39;;;;;;;8.15;4.22;;;13.50;99.90;;;;;;5033280;28;20040;-69
2021/09/16 05:38:06;;;;;;;10.20;4.15;;;13.50;99.90;;;;;;5033507;28;20471;-69
2021/09/16 05:40:33;;;;;;;9.50;4.18;;;13.40;99.90;;;;;;5033009;28;20072;-69
2021/09/16 05:42:58;;;;;;;9.40;4.10;;;13.50;99.90;;;;;;5033383;28;20067;-69
2021/09/16 05:45:24;;;;;;;7.72;3.72;;;13.40;99.90;;;;;;5031536;28;20057;-69
2021/09/16 05:47:49;;;;;;;10.45;4.43;;;13.40;99.90;;;;;;5033285;28;20037;-69
2021/09/16 05:50:15;;;;;;;7.68;4.03;;;13.40;99.90;;;;;;5032869;28;20488;-69
2021/09/16 05:52:41;;;;;;;7.45;4.03;;;13.40;99.90;;;;;;5033166;28;20025;-69
2021/09/16 05:55:09;;;;;;;7.22;4.10;;;13.40;99.90;;;;;;5033172;28;20042;-69
2021/09/16 05:57:34;;;;;;;9.57;4.40;;;13.40;99.90;;;;;;5032785;28;20033;-69
2021/09/16 06:00:00;;;;;;;10.63;5.22;;;13.40;99.90;;;;;;5033087;28;20393;-69
2021/09/16 06:02:26;;;;;;;9.90;4.90;;;13.40;99.90;;;;;;5032691;28;20502;-69
2021/09/16 06:04:51;;;;;;;8.05;3.88;;;13.30;99.90;;;;;;5032910;28;20026;-70
2021/09/16 06:07:17;;;;;;;9.27;4.22;;;13.40;99.90;;;;;;5032448;28;20034;-70
2021/09/16 06:09:42;;;;;;;8.20;4.03;;;13.40;99.90;;;;;;5032873;28;20025;-69
2021/09/16 06:12:08;;;;;;;5.78;3.00;;;13.40;99.90;;;;;;5033104;28;20022;-69
2021/09/16 06:14:34;;;;;;;8.52;3.70;;;13.50;99.90;;;;;;5032273;28;20081;-69
2021/09/16 06:17:00;;;;;;;9.70;4.57;;;13.60;99.90;;;;;;5032775;28;20060;-69
2021/09/16 06:19:26;;;;;;;9.20;3.42;;;13.70;99.90;;;;;;5032191;28;20021;-69
2021/09/16 06:21:51;;;;;;;6.40;2.95;;;13.80;99.90;;;;;;5031290;28;20083;-70
2021/09/16 06:24:17;;;;;;;6.45;2.85;;;13.90;99.90;;;;;;5032384;28;20057;-70
2021/09/16 06:26:43;;;;;;;9.15;4.20;;;14.00;99.90;;;;;;5032542;28;20472;-69
2021/09/16 06:29:10;;;;;;;6.43;2.88;;;14.10;99.90;;;;;;5032761;28;20033;-69
2021/09/16 06:31:36;;;;;;;4.35;2.70;;;14.30;99.90;;;;;;5031989;28;20475;-69
2021/09/16 06:34:01;;;;;;;7.40;2.63;;;14.40;99.90;;;;;;5032631;28;20040;-69
2021/09/16 06:36:27;;;;;;;5.78;2.38;;;14.60;99.90;;;;;;5031915;28;20064;-69
2021/09/16 06:38:52;;;;;;;4.63;1.88;;;14.70;99.90;;;;;;5032390;28;20044;-69
2021/09/16 06:41:18;;;;;;;6.28;2.30;;;14.90;99.90;;;;;;5031170;28;20025;-69
2021/09/16 06:43:43;;;;;;;6.35;1.75;;;15.10;99.90;;;;;;5030914;28;20388;-70
2021/09/16 06:46:09;;;;;;;6.30;1.40;;;15.30;99.90;;;;;;5032257;28;20057;-69
2021/09/16 06:48:34;;;;;;;4.90;1.58;;;15.50;99.90;;;;;;5031950;28;20083;-70
2021/09/16 06:51:00;;;;;;;3.03;1.63;;;15.60;99.90;;;;;;5032225;28;20412;-70
2021/09/16 06:53:25;;;;;;;3.78;1.40;;;15.70;99.90;;;;;;5031647;28;20029;-69
2021/09/16 06:55:51;;;;;;;5.75;1.48;;;15.80;99.90;;;;;;5031951;28;20022;-69
2021/09/16 06:58:16;;;;;;;7.10;1.65;;;15.90;99.90;;;;;;5031818;28;20392;-69
2021/09/16 07:00:42;;;;;;;4.07;1.77;;;16.00;99.90;;;;;;5032042;28;20018;-69
2021/09/16 07:03:07;;;;;;;5.20;1.70;;;16.00;99.90;;;;;;5030599;28;20026;-69
2021/09/16 07:05:33;;;;;;;3.92;1.60;;;16.10;99.90;;;;;;5030351;28;20760;-69
2021/09/16 07:07:58;;;;;;;8.82;2.17;;;16.20;99.90;;;;;;5031719;28;20022;-69
2021/09/16 07:10:24;;;;;;;6.55;2.03;;;16.20;99.90;;;;;;5031471;28;20039;-69
2021/09/16 07:12:50;;;;;;;4.43;2.00;;;16.20;99.90;;;;;;5032046;28;20040;-69
2021/09/16 07:15:15;;;;;;;5.20;1.92;;;16.30;99.90;;;;;;5031164;28;20091;-69
2021/09/16 07:17:41;;;;;;;6.18;2.33;;;16.30;99.90;;;;;;5032038;28;20472;-69
2021/09/16 07:20:07;;;;;;;8.18;2.75;;;16.40;99.90;;;;;;5031775;28;20058;-69
2021/09/16 07:22:33;;;;;;;5.75;2.50;;;16.40;99.90;;;;;;5031498;28;20075;-69
2021/09/16 07:24:58;;;;;;;4.22;2.13;;;16.50;99.90;;;;;;5031617;28;20426;-69
2021/09/16 07:27:24;;;;;;;7.97;2.42;;;16.40;99.90;;;;;;5031553;28;20068;-69
2021/09/16 07:29:49;;;;;;;5.22;2.60;;;16.50;99.90;;;;;;5031775;28;20532;-69
2021/09/16 07:32:15;;;;;;;6.53;2.08;;;16.50;99.90;;;;;;5031294;28;20037;-70
2021/09/16 07:34:41;;;;;;;4.93;1.75;;;16.60;99.90;;;;;;5031608;28;20071;-70
2021/09/16 07:37:07;;;;;;;4.10;1.75;;;16.60;99.90;;;;;;5031713;28;20038;-69
2021/09/16 07:39:32;;;;;;;3.45;1.30;;;16.70;99.90;;;;;;5031199;28;20025;-71
2021/09/16 07:41:58;;;;;;;5.78;1.30;;;16.70;99.90;;;;;;5030313;28;20018;-69
2021/09/16 07:44:24;;;;;;;3.45;1.40;;;16.70;99.90;;;;;;5030855;28;20076;-69
2021/09/16 07:46:49;;;;;;;9.50;1.60;;;16.70;99.80;;;;;;5031592;28;20025;-69
2021/09/16 07:49:15;;;;;;;3.40;1.23;;;16.80;99.70;;;;;;5031149;28;20029;-69
2021/09/16 07:51:40;;;;;;;4.25;1.65;;;16.80;99.60;;;;;;5031725;28;20029;-69
2021/09/16 07:54:11;;;;;;;6.95;1.48;;;16.90;99.60;;;;;;5034075;28;20036;-69
2021/09/16 07:56:36;;;;;;;7.05;1.73;;;16.90;99.40;;;;;;5034971;28;20033;-69
2021/09/16 07:59:02;;;;;;;3.38;1.52;;;16.90;99.40;;;;;;5035206;28;20052;-69
2021/09/16 08:01:27;;;;;;;7.05;1.60;;;16.80;99.50;;;;;;5034979;28;20030;-69
2021/09/16 08:03:53;;;;;;;5.13;1.20;;;16.80;99.40;;;;;;5035173;28;20067;-69
2021/09/16 08:06:18;;;;;;;4.55;0.80;;;16.90;99.50;;;;;;5034841;28;20033;-69
2021/09/16 08:08:44;;;;;;;3.95;0.85;;;16.90;99.30;;;;;;5035053;28;20061;-69
2021/09/16 08:11:09;;;;;;;4.20;0.70;;;17.00;99.20;;;;;;5035133;28;20029;-69
2021/09/16 08:13:35;;;;;;;5.85;0.90;;;17.00;99.10;;;;;;5034693;28;20113;-69
2021/09/16 08:16:00;;;;;;;4.57;1.00;;;17.10;98.80;;;;;;5034767;28;20091;-69
2021/09/16 08:18:26;;;;;;;2.88;0.90;;;17.10;98.70;;;;;;5034804;28;20040;-69
2021/09/16 08:20:53;;;;;;;5.57;1.05;;;17.10;98.60;;;;;;5034763;28;20052;-69
2021/09/16 08:23:20;;;;;;;5.50;1.20;;;17.20;98.40;;;;;;5034581;28;20018;-70
2021/09/16 08:25:46;;;;;;;3.67;1.60;;;17.20;98.30;;;;;;5033332;28;20033;-69
2021/09/16 08:28:12;;;;;;;7.50;1.00;;;17.30;98.40;;;;;;5034975;28;20126;-70
2021/09/16 08:30:38;;;;;;;3.88;0.95;;;17.30;98.40;;;;;;5034510;28;20052;-69
2021/09/16 08:33:05;;;;;;;3.30;0.88;;;17.40;98.40;;;;;;5033469;28;20056;-69
2021/09/16 08:35:31;;;;;;;5.18;0.75;;;17.50;98.20;;;;;;5034397;28;20033;-69
2021/09/16 08:37:56;;;;;;;5.00;0.80;;;17.60;98.00;;;;;;5034406;28;20027;-69
2021/09/16 08:40:22;;;;;;;8.43;0.90;;;17.70;97.80;;;;;;5034368;28;20096;-69
2021/09/16 08:42:49;;;;;;;6.60;0.90;;;17.70;97.60;;;;;;5034175;28;20503;-69
2021/09/16 08:45:16;;;;;;;4.45;0.70;;;17.80;97.80;;;;;;5034295;28;20033;-69
2021/09/16 08:47:44;;;;;;;4.93;0.70;;;17.90;97.40;;;;;;5034267;28;20032;-69
2021/09/16 08:50:12;;;;;;;4.95;0.80;;;17.90;97.40;;;;;;5034337;28;20021;-69
2021/09/16 08:52:39;;;;;;;4.95;0.85;;;18.00;96.90;;;;;;5033735;28;20087;-69
2021/09/16 08:55:07;;;;;;;4.88;0.68;;;18.10;97.00;;;;;;5033885;28;20064;-69
2021/09/16 08:57:38;;;;;;;4.75;0.70;;;18.20;96.80;;;;;;5033851;28;20017;-69
2021/09/16 09:00:12;;;;;;;5.88;0.60;;;18.20;96.60;;;;;;5034784;28;20426;-69
2021/09/16 09:02:38;;;;;;;2.83;0.77;;;18.20;96.70;;;;;;5033607;28;20029;-69
2021/09/16 09:05:06;;;;;;;3.85;0.60;;;18.30;96.70;;;;;;5033489;28;20048;-69
2021/09/16 09:07:45;;;;;;;3.50;0.60;;;18.40;96.60;;;;;;5033682;28;20017;-70
2021/09/16 09:10:32;;;;;;;3.60;0.68;;;18.50;96.50;;;;;;5034236;28;20021;-69
2021/09/16 09:12:58;;;;;;;4.70;0.60;;;18.60;96.40;;;;;;5033926;28;20029;-69
2021/09/16 09:15:24;;;;;;;3.35;0.60;;;18.60;96.30;;;;;;5032029;28;20056;-70
2021/09/16 09:18:17;;;;;;;3.10;0.60;;;18.80;96.10;;;;;;5032640;28;20498;-69
2021/09/16 09:21:16;;;;;;;3.60;0.45;;;19.00;95.80;;;;;;5032689;28;20033;-69
2021/09/16 09:23:54;;;;;;;4.88;0.50;;;19.10;95.20;;;;;;5011198;28;20033;-69
2021/09/16 09:26:29;;;;;;;3.20;0.50;;;18.90;94.90;;;;;;5033459;28;20025;-69
2021/09/16 09:29:07;;;;;;;5.00;0.40;;;18.60;95.00;;;;;;5032563;28;20053;-69
2021/09/16 09:31:35;;;;;;;10.02;1.60;;;18.50;95.40;;;;;;5031910;28;20033;-70
2021/09/16 09:34:20;;;;;;;7.20;0.93;;;18.50;95.20;;;;;;5025826;28;20018;-69
2021/09/16 09:36:45;;;;;;;4.97;0.65;;;18.60;95.10;;;;;;5033807;28;20025;-69
2021/09/16 09:39:11;;;;;;;4.05;0.40;;;18.70;94.90;;;;;;5033480;28;20388;-69
2021/09/16 09:41:38;;;;;;;5.07;0.57;;;18.90;95.00;;;;;;5031633;28;20036;-69
2021/09/16 09:44:14;;;;;;;6.22;0.43;;;19.00;94.10;;;;;;5033244;28;20018;-69
2021/09/16 09:46:51;;;;;;;3.85;0.45;;;19.00;93.70;;;;;;5033432;28;20387;-69
2021/09/16 09:49:24;;;;;;;4.28;0.40;;;19.10;93.60;;;;;;5032979;28;20017;-69
2021/09/16 09:51:55;;;;;;;4.05;0.60;;;19.20;93.30;;;;;;5033386;28;20034;-69
2021/09/16 09:54:36;;;;;;;4.80;0.55;;;19.30;93.40;;;;;;5032720;28;20025;-69
2021/09/16 09:57:10;;;;;;;5.80;0.43;;;19.30;93.20;;;;;;5032961;28;20026;-69
2021/09/16 10:00:01;;;;;;;1.90;0.30;;;19.50;93.40;;;;;;5032523;28;20035;-69
2021/09/16 10:02:43;;;;;;;2.63;0.50;;;19.60;93.30;;;;;;5032848;28;20459;-70
2021/09/16 10:05:31;;;;;;;;;;;19.60;92.60;;;;;;5033488;28;20021;-69
2021/09/16 10:08:09;;;;;;;5.28;0.60;;;19.40;92.90;;;;;;5032876;28;19955;-69
2021/09/16 10:10:52;;;;;;;3.13;0.50;;;19.40;93.00;;;;;;5032620;28;20498;-69
2021/09/16 10:13:19;;;;;;;3.10;0.30;;;19.50;92.10;;;;;;5032350;28;20026;-69
2021/09/16 10:15:45;;;;;;;3.65;0.40;;;19.50;91.90;;;;;;5031804;28;20052;-69
2021/09/16 10:18:11;;;;;;;5.38;0.50;;;19.50;92.00;;;;;;5032479;28;20025;-70
2021/09/16 10:20:36;;;;;;;1.83;0.38;;;19.60;91.30;;;;;;5032450;28;20032;-69
2021/09/16 10:23:06;;;;;;;3.00;0.35;;;19.60;91.40;;;;;;5031445;28;20084;-69
2021/09/16 10:25:32;;;;;;;1.95;0.25;;;19.60;91.60;;;;;;5032186;28;20025;-69
2021/09/16 10:28:07;;;;;;;6.00;0.60;;;19.60;91.20;;;;;;5032512;28;20032;-69
2021/09/16 10:30:41;;;;;;;2.08;0.40;;;19.70;90.90;;;;;;5032180;28;20436;-69
2021/09/16 10:33:09;;;;;;;3.22;0.30;;;19.80;90.90;;;;;;5032449;28;20091;-69
2021/09/16 10:35:47;;;;;;;4.05;0.55;;;19.90;90.90;;;;;;5012384;28;20026;-69
2021/09/16 10:38:38;;;;;;;2.25;0.47;;;19.90;90.40;;;;;;5014735;28;20033;-70
2021/09/16 10:41:25;;;;;;;2.65;0.40;;;20.10;90.60;;;;;;5032080;28;20052;-69
2021/09/16 10:44:18;;;;;;;2.63;0.38;;;20.20;90.50;;;;;;5032084;28;20464;-69
2021/09/16 10:46:49;;;;;;;4.50;0.30;;;20.10;89.70;;;;;;5032511;28;20067;-69
2021/09/16 10:49:23;;;;;;;2.80;0.70;;;20.00;89.80;;;;;;5032092;28;20025;-69
2021/09/16 10:51:52;;;;;;;2.40;0.50;;;20.10;90.30;;;;;;5031944;28;20056;-69
2021/09/16 10:54:33;;;;;;;2.30;0.35;;;20.10;89.00;;;;;;5031601;28;20037;-70
2021/09/16 10:57:19;;;;;;;3.17;0.30;;;20.20;89.30;;;;;;5032219;28;20083;-69
2021/09/16 10:59:50;;;;;;;3.17;0.30;;;20.20;87.70;;;;;;5031980;28;20468;-69
2021/09/16 11:02:20;;;;;;;1.63;0.27;;;20.20;89.10;;;;;;5031268;28;20108;-69
2021/09/16 11:04:55;;;;;;;1.38;0.40;;;20.30;88.80;;;;;;5030852;28;20032;-69
2021/09/16 11:07:32;;;;;;;4.13;0.30;;;20.50;88.10;;;;;;5031588;28;20503;-69
2021/09/16 11:10:20;;;;;;;3.75;0.40;;;20.50;87.90;;;;;;5032013;28;20044;-70
2021/09/16 11:12:51;;;;;;;3.55;0.40;;;20.60;88.20;;;;;;5030588;28;20029;-69
2021/09/16 11:15:24;;;;;;;2.33;0.40;;;20.70;88.10;;;;;;5031244;28;20136;-70
2021/09/16 11:17:50;;;;;;;1.90;0.30;;;20.80;87.30;;;;;;5032128;28;20097;-69
2021/09/16 11:20:19;;;;;;;1.52;0.28;;;20.80;86.60;;;;;;5030157;28;20033;-69
2021/09/16 11:22:50;;;;;;;4.88;0.73;;;20.70;86.60;;;;;;5031886;28;20029;-69
2021/09/16 11:25:16;;;;;;;2.55;0.30;;;20.60;86.30;;;;;;5031309;28;20022;-70
2021/09/16 11:27:41;;;;;;;4.05;0.32;;;20.60;85.90;;;;;;5031341;28;20026;-69
2021/09/16 11:30:15;;;;;;;1.88;0.25;;;20.60;86.10;;;;;;5031712;28;20403;-69
2021/09/16 11:32:42;;;;;;;2.40;0.25;;;20.60;86.30;;;;;;5031839;28;20029;-69
2021/09/16 11:35:10;;;;;;;2.40;0.30;;;20.60;86.50;;;;;;5031627;28;20025;-69
2021/09/16 11:37:41;;;;;;;1.77;0.45;;;20.70;87.40;;;;;;5030894;28;20013;-70
2021/09/16 11:40:10;;;;;;;5.22;0.63;;;20.80;86.80;;;;;;5031557;28;20025;-69
2021/09/16 11:42:45;;;;;;;2.70;0.30;;;20.90;86.40;;;;;;5030774;28;20022;-69
2021/09/16 11:45:18;;;;;;;1.92;0.30;;;20.80;85.90;;;;;;5031381;28;20017;-70
2021/09/16 11:47:44;;;;;;;2.10;0.40;;;20.80;86.10;;;;;;5031354;28;20087;-69
2021/09/16 11:50:24;;;;;;;2.60;0.30;;;20.80;85.70;;;;;;5031476;28;20104;-70
2021/09/16 11:52:59;;;;;;;1.08;0.30;;;20.90;86.40;;;;;;5030218;28;20387;-70
2021/09/16 11:55:25;;;;;;;1.00;0.50;;;21.10;86.00;;;;;;5030967;28;20018;-69
2021/09/16 11:57:56;;;;;;;3.92;0.40;;;21.20;85.30;;;;;;5031380;28;20033;-69
2021/09/16 12:00:31;;;;;;;5.77;0.40;;;21.10;83.70;;;;;;5031219;28;20059;-70
2021/09/16 12:02:58;;;;;;;2.70;0.30;;;21.00;84.70;;;;;;5031208;28;20278;-69
2021/09/16 12:05:44;;;;;;;0.45;0.20;;;21.10;84.60;;;;;;5030928;28;20022;-69
2021/09/16 12:08:18;;;;;;;1.52;0.50;;;21.20;84.50;;;;;;5031248;28;20426;-70
2021/09/16 12:11:14;;;;;;;3.28;0.30;;;21.40;83.60;;;;;;5031445;28;20049;-69
2021/09/16 12:13:49;;;;;;;1.85;0.30;;;21.40;82.30;;;;;;5026495;28;20065;-69
2021/09/16 12:16:17;;;;;;;2.15;0.65;;;21.40;83.00;;;;;;5029588;28;20046;-70
2021/09/16 12:19:05;;;;;;;2.17;0.40;;;21.50;83.30;;;;;;5031158;28;20387;-70
2021/09/16 12:21:40;;;;;;;1.92;0.30;;;21.50;82.20;;;;;;5030691;28;20519;-70
2021/09/16 12:24:07;;;;;;;1.73;0.30;;;21.40;82.70;;;;;;5031218;28;20029;-70
2021/09/16 12:26:37;;;;;;;2.15;0.30;;;21.40;82.30;;;;;;5030604;28;20061;-70
2021/09/16 12:29:06;;;;;;;3.40;0.40;;;21.20;82.50;;;;;;5031351;28;20036;-70
2021/09/16 12:31:39;;;;;;;1.17;0.32;;;21.20;83.40;;;;;;5030732;28;20068;-69
2021/09/16 12:34:08;;;;;;;2.25;0.30;;;21.20;83.30;;;;;;5031247;28;20033;-69
2021/09/16 12:36:53;;;;;;;1.30;0.30;;;21.30;82.70;;;;;;5030553;28;20038;-70
2021/09/16 12:39:19;;;;;;;1.90;0.28;;;21.40;82.10;;;;;;5032133;28;20152;-70
2021/09/16 12:41:56;;;;;;;2.63;0.30;;;21.40;82.10;;;;;;5034739;28;20028;-70
2021/09/16 12:44:29;;;;;;;2.95;0.40;;;21.40;81.80;;;;;;5034170;28;20025;-69
2021/09/16 12:46:58;;;;;;;2.47;0.38;;;21.30;82.20;;;;;;5034698;28;20075;-69
2021/09/16 12:49:27;;;;;;;1.20;0.30;;;21.30;82.60;;;;;;5033981;28;20025;-70